Terminal Aerodrome Forecast
Issued by NWS

Home | Current Version | Previous Version | Text Only | Print | Product List | Glossary On
Versions: 1 2 3 4 5 6 7 8 9 10 11 12 13 14 15 16 17 18 19 20 21 22 23 24 25 26
000
FTUS45 KGGW 291354 AAA
TAFGDV
TAF AMD
KGDV 291354Z 2914/3012 VRB03KT P6SM VCFG BKN005
     FM291500 VRB03KT P6SM BKN012
     FM291600 VRB03KT P6SM SCT015
     FM291800 14004KT P6SM BKN070
     FM291900 VRB03KT P6SM SCT070=

USA.gov is the U.S. government's official web portal to all federal, state and local government web resources and services.